createdAt,value
2022-11-22T00:04:25.951Z,61.30
2022-11-22T00:09:28.382Z,61.75
2022-11-22T00:14:31.065Z,60.67
2022-11-22T00:19:33.674Z,71.35
2022-11-22T00:24:36.056Z,77.20
2022-11-22T00:29:39.087Z,78.47
2022-11-22T00:34:41.616Z,53.75
2022-11-22T00:39:45.438Z,91.55
2022-11-22T00:44:47.831Z,89.60
2022-11-22T00:49:50.733Z,68.17
2022-11-22T00:54:55.193Z,100.13
2022-11-22T00:59:57.704Z,119.47
2022-11-22T01:05:00.154Z,71.13
2022-11-22T01:10:03.100Z,53.57
2022-11-22T01:15:06.218Z,69.93
2022-11-22T01:20:09.367Z,68.85
2022-11-22T01:25:11.879Z,83.55
2022-11-22T01:30:14.593Z,71.72
2022-11-22T01:35:17.403Z,55.42
2022-11-22T01:40:20.003Z,66.85
2022-11-22T01:45:31.625Z,53.97
2022-11-22T01:50:35.995Z,71.95
2022-11-22T01:55:38.735Z,65.72
2022-11-22T02:00:41.496Z,69.27
2022-11-22T02:05:43.969Z,75.43
2022-11-22T02:10:48.336Z,69.68
2022-11-22T02:15:52.131Z,69.25
2022-11-22T02:20:55.023Z,89.30
2022-11-22T02:25:58.315Z,59.63
2022-11-22T02:31:00.729Z,71.38
2022-11-22T02:36:03.609Z,73.10
2022-11-22T02:41:12.212Z,71.85
2022-11-22T02:46:20.715Z,71.95
2022-11-22T02:51:23.303Z,71.78
2022-11-22T02:56:25.640Z,73.97
2022-11-22T03:01:27.986Z,78.75
2022-11-22T03:06:30.504Z,84.28
2022-11-22T03:11:32.790Z,80.63
2022-11-22T03:16:35.093Z,83.25
2022-11-22T03:21:38.220Z,87.28
2022-11-22T03:26:40.600Z,66.18
2022-11-22T03:31:42.983Z,86.88
2022-11-22T03:36:45.642Z,79.63
2022-11-22T03:41:48.107Z,79.63
2022-11-22T03:46:50.598Z,76.30
2022-11-22T03:51:52.997Z,81.22
2022-11-22T03:56:55.341Z,80.85
2022-11-22T04:01:57.760Z,79.95
2022-11-22T04:07:00.359Z,58.57
2022-11-22T04:12:02.706Z,77.45
2022-11-22T04:17:05.072Z,79.97
2022-11-22T04:22:07.349Z,75.25
2022-11-22T04:27:09.730Z,69.57
2022-11-22T04:32:30.673Z,69.00
2022-11-22T04:37:34.163Z,74.80
2022-11-22T04:42:54.968Z,71.78
2022-11-22T04:48:02.573Z,77.88
2022-11-22T04:53:05.102Z,88.30
2022-11-22T04:58:08.422Z,95.50
2022-11-22T05:03:10.963Z,84.32
2022-11-22T05:08:13.686Z,77.93
2022-11-22T05:13:17.226Z,69.30
2022-11-22T05:18:20.852Z,78.07
2022-11-22T05:23:43.100Z,74.50
2022-11-22T05:28:45.751Z,76.10
2022-11-22T05:33:48.026Z,72.25
2022-11-22T05:38:50.672Z,66.72
2022-11-22T05:43:56.855Z,52.03
2022-11-22T05:48:59.540Z,81.70
2022-11-22T05:54:02.573Z,64.97
2022-11-22T05:59:05.179Z,90.65
2022-11-22T06:04:07.558Z,91.53
2022-11-22T06:09:09.871Z,99.90
2022-11-22T06:14:12.157Z,89.32
2022-11-22T06:19:14.496Z,95.50
2022-11-22T06:24:16.867Z,96.03
2022-11-22T06:29:19.278Z,89.95
2022-11-22T06:34:21.643Z,94.97
2022-11-22T06:39:24.080Z,95.75
2022-11-22T06:44:27.390Z,91.07
2022-11-22T06:49:30.273Z,69.00
2022-11-22T06:54:32.844Z,67.55
2022-11-22T06:59:35.759Z,94.10
2022-11-22T07:04:46.785Z,83.95
2022-11-22T07:10:00.417Z,112.82
2022-11-22T07:15:02.788Z,85.85
2022-11-22T07:20:07.054Z,88.70
2022-11-22T07:25:10.772Z,98.50
2022-11-22T07:30:13.636Z,111.72
2022-11-22T07:35:15.987Z,73.00
2022-11-22T07:40:18.453Z,88.40
2022-11-22T07:45:20.731Z,98.43
2022-11-22T07:50:23.109Z,91.72
2022-11-22T07:55:27.013Z,104.55
2022-11-22T08:00:29.695Z,101.55
2022-11-22T08:05:32.032Z,77.53
2022-11-22T08:10:34.284Z,97.45
2022-11-22T08:15:36.671Z,85.43
2022-11-22T08:20:39.153Z,95.72
2022-11-22T08:25:41.602Z,92.47
2022-11-22T08:30:43.918Z,97.05
2022-11-22T08:35:50.487Z,95.32
2022-11-22T08:40:53.004Z,99.53
2022-11-22T08:45:57.347Z,108.50
2022-11-22T08:51:02.163Z,105.38
2022-11-22T08:56:06.555Z,91.35
2022-11-22T09:01:14.645Z,90.22
2022-11-22T09:11:41.681Z,102.68
2022-11-22T09:16:44.044Z,106.88
2022-11-22T09:21:46.338Z,113.78
2022-11-22T09:26:48.775Z,119.95
2022-11-22T09:31:51.699Z,87.07
2022-11-22T09:36:54.986Z,122.78
2022-11-22T09:42:06.300Z,124.20
2022-11-22T09:47:30.684Z,127.20
2022-11-22T09:52:57.103Z,138.57
2022-11-22T09:58:47.931Z,130.90
2022-11-22T10:04:09.838Z,160.52
2022-11-22T10:09:24.416Z,146.98
2022-11-22T10:14:46.103Z,135.65
2022-11-22T10:19:53.436Z,127.55
2022-11-22T10:24:58.794Z,136.43
2022-11-22T10:30:06.631Z,132.50
2022-11-22T10:35:14.048Z,134.57
2022-11-22T10:40:23.314Z,143.52
2022-11-22T10:45:28.625Z,132.95
2022-11-22T10:50:52.499Z,146.10
2022-11-22T10:56:25.819Z,134.90
2022-11-22T11:01:46.696Z,100.63
2022-11-22T11:07:12.080Z,167.23
2022-11-22T11:12:28.236Z,122.38
2022-11-22T11:17:34.146Z,117.80
2022-11-22T11:23:13.666Z,117.90
2022-11-22T11:28:05.847Z,123.28
2022-11-22T11:33:17.841Z,121.38
2022-11-22T11:38:56.420Z,117.88
2022-11-22T11:44:00.756Z,123.22
2022-11-22T11:49:18.085Z,118.07
2022-11-22T11:54:26.503Z,113.15
2022-11-22T11:59:40.473Z,118.50
2022-11-22T12:04:53.503Z,130.80
2022-11-22T12:09:56.326Z,133.93
2022-11-22T12:15:11.574Z,97.63
2022-11-22T12:20:26.396Z,115.65
2022-11-22T12:25:35.927Z,117.40
2022-11-22T12:30:39.553Z,121.25
2022-11-22T12:35:44.656Z,120.05
2022-11-22T12:40:52.117Z,130.10
2022-11-22T12:46:01.660Z,126.38
2022-11-22T12:51:33.344Z,120.68
2022-11-22T12:56:57.584Z,151.63
2022-11-22T13:02:21.265Z,145.65
2022-11-22T13:12:47.418Z,147.35
2022-11-22T13:17:49.734Z,154.18
2022-11-22T13:23:30.776Z,156.68
2022-11-22T13:28:36.213Z,171.20
2022-11-22T13:34:00.335Z,160.93
2022-11-22T13:39:05.882Z,177.45
2022-11-22T13:44:27.223Z,176.13
2022-11-22T13:49:48.665Z,195.50
2022-11-22T13:54:53.246Z,175.57
2022-11-22T14:00:14.694Z,156.30
2022-11-22T14:05:41.071Z,175.68
2022-11-22T14:10:53.421Z,156.52
2022-11-22T14:16:12.524Z,149.07
2022-11-22T14:21:26.234Z,168.10
2022-11-22T14:26:47.285Z,144.65
2022-11-22T14:37:11.239Z,107.80
2022-11-22T14:42:35.462Z,133.60
2022-11-22T14:47:43.795Z,146.13
2022-11-22T14:52:47.067Z,141.07
2022-11-22T14:57:58.535Z,123.75
2022-11-22T15:03:27.700Z,135.13
2022-11-22T15:09:23.612Z,148.38
2022-11-22T15:14:44.603Z,162.52
2022-11-22T15:57:55.559Z,206.68
2022-11-22T16:03:03.316Z,205.93
2022-11-22T16:08:06.402Z,241.15
2022-11-22T16:13:20.880Z,240.83
2022-11-22T16:18:27.385Z,267.38
2022-11-22T16:23:33.327Z,215.07
2022-11-22T16:28:36.215Z,219.55
2022-11-22T16:33:38.502Z,241.47
2022-11-22T16:38:41.703Z,191.60
2022-11-22T16:43:44.247Z,219.75
2022-11-22T16:48:49.604Z,222.50
2022-11-22T16:53:53.483Z,265.88
2022-11-22T16:58:57.509Z,216.02
2022-11-22T17:04:02.144Z,222.80
2022-11-22T17:09:04.670Z,211.32
2022-11-22T17:14:13.686Z,232.03
2022-11-22T17:19:51.617Z,435.58
2022-11-22T17:24:39.793Z,297.27
2022-11-22T17:29:50.174Z,269.65
2022-11-22T17:34:53.436Z,396.13
2022-11-22T17:39:56.055Z,242.45
2022-11-22T17:44:58.378Z,201.70
2022-11-22T17:50:00.732Z,244.50
2022-11-22T17:55:05.727Z,201.68
2022-11-22T18:00:09.872Z,198.88
2022-11-22T18:05:12.889Z,192.73
2022-11-22T18:10:17.723Z,186.68
2022-11-22T18:15:24.670Z,203.38
2022-11-22T18:20:27.212Z,198.10
2022-11-22T18:25:33.624Z,241.80
2022-11-22T18:30:36.575Z,370.60
2022-11-22T18:35:39.514Z,333.10
2022-11-22T18:40:56.967Z,316.30
2022-11-22T18:46:16.104Z,339.50
2022-11-22T18:51:18.806Z,357.70
2022-11-22T18:57:09.427Z,344.02
2022-11-22T19:02:10.313Z,320.23
2022-11-22T19:07:14.847Z,284.52
2022-11-22T19:12:17.720Z,424.00
2022-11-22T19:17:22.097Z,466.83
2022-11-22T19:22:27.978Z,494.52
2022-11-22T19:27:30.538Z,521.60
2022-11-22T19:32:33.327Z,381.90
2022-11-22T19:37:37.044Z,209.85
2022-11-22T19:42:48.430Z,179.52
2022-11-22T19:47:50.881Z,181.50
2022-11-22T19:57:58.220Z,143.27
2022-11-22T20:03:02.986Z,184.77
2022-11-22T20:08:08.651Z,184.85
2022-11-22T20:13:11.019Z,170.95
2022-11-22T20:18:13.487Z,194.18
2022-11-22T20:23:20.091Z,207.55
2022-11-22T20:28:22.477Z,227.73
2022-11-22T20:33:24.887Z,217.88
2022-11-22T20:38:30.240Z,185.73
2022-11-22T20:43:37.581Z,191.48
2022-11-22T20:48:43.201Z,174.32
2022-11-22T20:53:46.247Z,215.23
2022-11-22T20:58:49.208Z,146.93
2022-11-22T21:03:52.395Z,161.40
2022-11-22T21:08:56.745Z,162.20
2022-11-22T21:13:59.452Z,150.60
2022-11-22T21:19:05.272Z,162.02
2022-11-22T21:24:13.755Z,161.73
2022-11-22T21:29:17.189Z,170.38
2022-11-22T21:34:19.566Z,138.70
2022-11-22T21:39:22.408Z,145.45
2022-11-22T21:44:24.777Z,117.97
2022-11-22T21:49:27.091Z,142.30
2022-11-22T21:54:29.918Z,143.13
2022-11-22T21:59:33.079Z,136.95
2022-11-22T22:04:42.738Z,142.65
2022-11-22T22:09:45.143Z,133.52
2022-11-22T22:15:03.370Z,147.67
2022-11-22T22:20:12.046Z,171.15
2022-11-22T22:25:14.991Z,199.88
2022-11-22T22:30:17.490Z,187.77
2022-11-22T22:35:20.162Z,215.88
2022-11-22T22:40:46.169Z,171.20
2022-11-22T22:45:50.519Z,166.55
2022-11-22T22:51:20.849Z,133.48
2022-11-22T22:56:24.670Z,165.40
2022-11-22T23:01:30.338Z,169.57
2022-11-22T23:06:36.994Z,158.07
2022-11-22T23:11:57.871Z,154.63
2022-11-22T23:17:00.407Z,136.88
2022-11-22T23:22:03.305Z,151.25
2022-11-22T23:27:05.897Z,141.97
2022-11-22T23:32:08.263Z,161.15
2022-11-22T23:37:10.722Z,154.75
2022-11-22T23:42:13.475Z,136.57
2022-11-22T23:47:15.724Z,142.73
2022-11-22T23:52:19.008Z,135.05
2022-11-22T23:57:21.438Z,123.60
